createdAt,value
2018-06-05T00:00:48.674Z,20.1
2018-06-05T00:01:49.343Z,20.0
2018-06-05T00:02:50.012Z,20.1
2018-06-05T00:03:50.680Z,20.1
2018-06-05T00:04:51.351Z,20.1
2018-06-05T00:05:52.021Z,20.0
2018-06-05T00:06:52.725Z,20.0
2018-06-05T00:07:53.393Z,20.0
2018-06-05T00:08:54.064Z,20.0
2018-06-05T00:09:54.732Z,20.0
2018-06-05T00:10:55.401Z,20.0
2018-06-05T00:11:56.070Z,19.9
2018-06-05T00:12:56.739Z,19.9
2018-06-05T00:13:57.408Z,19.9
2018-06-05T00:14:58.077Z,20.0
2018-06-05T00:15:58.748Z,19.9
2018-06-05T00:16:59.417Z,19.9
2018-06-05T00:18:00.089Z,19.9
2018-06-05T00:19:00.795Z,19.9
2018-06-05T00:20:01.466Z,19.9
2018-06-05T00:21:02.134Z,19.9
2018-06-05T00:22:02.804Z,19.9
2018-06-05T00:23:03.474Z,19.9
2018-06-05T00:24:04.142Z,19.8
2018-06-05T00:25:04.811Z,19.8
2018-06-05T00:26:05.479Z,19.8
2018-06-05T00:27:06.148Z,19.8
2018-06-05T00:28:06.817Z,19.8
2018-06-05T00:29:07.485Z,19.7
2018-06-05T00:30:08.154Z,19.8
2018-06-05T00:31:08.823Z,19.8
2018-06-05T00:32:09.492Z,19.7
2018-06-05T00:33:10.162Z,19.6
2018-06-05T00:34:10.831Z,19.7
2018-06-05T00:35:11.499Z,19.8
2018-06-05T00:36:12.168Z,19.6
2018-06-05T00:37:12.836Z,19.7
2018-06-05T00:38:13.512Z,19.7
2018-06-05T00:39:14.176Z,19.6
2018-06-05T00:40:14.849Z,19.7
2018-06-05T00:41:15.519Z,19.6
2018-06-05T00:42:16.188Z,19.5
2018-06-05T00:43:16.857Z,19.6
2018-06-05T00:44:17.526Z,19.5
2018-06-05T00:45:18.194Z,19.6
2018-06-05T00:46:18.862Z,19.5
2018-06-05T00:47:19.531Z,19.5
2018-06-05T00:48:20.200Z,19.5
2018-06-05T00:49:20.869Z,19.4
2018-06-05T00:50:21.538Z,19.5
2018-06-05T00:51:22.207Z,19.5
2018-06-05T00:52:22.876Z,19.4
2018-06-05T00:53:23.545Z,19.4
2018-06-05T00:54:24.216Z,19.4
2018-06-05T00:55:24.885Z,19.5
2018-06-05T00:56:25.553Z,19.4
2018-06-05T00:57:26.223Z,19.4
2018-06-05T00:58:26.928Z,19.3
2018-06-05T00:59:27.599Z,19.4
2018-06-05T01:00:28.304Z,19.4
2018-06-05T01:01:28.974Z,19.3
2018-06-05T01:02:29.643Z,19.3
2018-06-05T01:03:30.314Z,19.4
2018-06-05T01:04:30.981Z,19.3
2018-06-05T01:05:31.654Z,19.3
2018-06-05T01:06:32.354Z,19.3
2018-06-05T01:07:33.024Z,19.3
2018-06-05T01:08:33.692Z,19.3
2018-06-05T01:09:34.362Z,19.3
2018-06-05T01:10:35.031Z,19.3
2018-06-05T01:11:35.736Z,19.3
2018-06-05T01:12:36.406Z,19.3
2018-06-05T01:13:37.075Z,19.3
2018-06-05T01:14:37.746Z,19.2
2018-06-05T01:15:38.449Z,19.3
2018-06-05T01:16:39.119Z,19.2
2018-06-05T01:17:39.793Z,19.2
2018-06-05T01:18:40.456Z,19.2
2018-06-05T01:19:41.124Z,19.3
2018-06-05T01:20:41.792Z,19.2
2018-06-05T01:21:42.461Z,19.2
2018-06-05T01:22:43.139Z,19.2
2018-06-05T01:23:43.799Z,19.2
2018-06-05T01:24:44.468Z,19.1
2018-06-05T01:25:45.135Z,19.1
2018-06-05T01:26:45.805Z,19.1
2018-06-05T01:27:46.509Z,19.1
2018-06-05T01:28:47.178Z,19.1
2018-06-05T01:29:47.845Z,19.1
2018-06-05T01:30:48.513Z,19.0
2018-06-05T01:31:49.182Z,19.0
2018-06-05T01:32:49.850Z,19.0
2018-06-05T01:33:50.519Z,19.0
2018-06-05T01:34:51.186Z,18.9
2018-06-05T01:35:51.856Z,19.0
2018-06-05T01:36:52.521Z,18.9
2018-06-05T01:37:53.195Z,18.9
2018-06-05T01:38:53.860Z,18.8
2018-06-05T01:39:54.526Z,18.8
2018-06-05T01:40:55.193Z,18.8
2018-06-05T01:41:55.864Z,18.8
2018-06-05T01:42:56.568Z,18.8
2018-06-05T01:43:57.242Z,18.8
2018-06-05T01:44:57.942Z,18.8
2018-06-05T01:45:58.609Z,18.8
2018-06-05T01:46:59.277Z,18.9
2018-06-05T01:47:59.946Z,18.7
2018-06-05T01:49:00.614Z,18.8
2018-06-05T01:50:01.283Z,18.7
2018-06-05T01:51:01.953Z,18.8
2018-06-05T01:52:02.618Z,18.7
2018-06-05T01:53:03.288Z,18.7
2018-06-05T01:54:03.954Z,18.7
2018-06-05T01:55:04.629Z,18.7
2018-06-05T01:56:05.290Z,18.7
2018-06-05T01:57:05.958Z,18.7
2018-06-05T01:58:06.626Z,18.7
2018-06-05T01:59:07.295Z,18.6
2018-06-05T02:00:07.966Z,18.6
2018-06-05T02:01:08.635Z,18.7
2018-06-05T02:02:09.305Z,18.5
2018-06-05T02:03:09.975Z,18.6
2018-06-05T02:04:10.643Z,18.6
2018-06-05T02:05:11.312Z,18.6
2018-06-05T02:06:11.980Z,18.5
2018-06-05T02:07:12.648Z,18.5
2018-06-05T02:08:13.316Z,18.5
2018-06-05T02:09:13.985Z,18.5
2018-06-05T02:10:14.653Z,18.5
2018-06-05T02:11:15.322Z,18.4
2018-06-05T02:12:15.991Z,18.5
2018-06-05T02:13:16.661Z,18.4
2018-06-05T02:14:17.369Z,18.4
2018-06-05T02:15:18.034Z,18.4
2018-06-05T02:16:18.702Z,18.4
2018-06-05T02:17:19.373Z,18.3
2018-06-05T02:18:20.076Z,18.4
2018-06-05T02:19:20.746Z,18.3
2018-06-05T02:20:21.414Z,18.3
2018-06-05T02:21:22.083Z,18.3
2018-06-05T02:22:22.752Z,18.3
2018-06-05T02:23:23.422Z,18.2
2018-06-05T02:24:24.091Z,18.3
2018-06-05T02:25:24.766Z,18.2
2018-06-05T02:26:25.463Z,18.3
2018-06-05T02:27:26.132Z,18.2
2018-06-05T02:28:26.802Z,18.3
2018-06-05T02:29:27.469Z,18.2
2018-06-05T02:30:28.137Z,18.2
2018-06-05T02:31:28.806Z,18.2
2018-06-05T02:32:29.473Z,18.2
2018-06-05T02:33:30.141Z,18.1
2018-06-05T02:34:30.814Z,18.1
2018-06-05T02:35:31.478Z,18.0
2018-06-05T02:36:32.147Z,18.1
2018-06-05T02:37:32.848Z,18.1
2018-06-05T02:38:33.515Z,18.1
2018-06-05T02:39:34.182Z,18.0
2018-06-05T02:40:34.851Z,18.1
2018-06-05T02:41:35.519Z,18.0
2018-06-05T02:42:36.189Z,18.0
2018-06-05T02:43:36.862Z,18.0
2018-06-05T02:44:37.526Z,18.0
2018-06-05T02:45:38.195Z,18.0
2018-06-05T02:46:38.864Z,18.0
2018-06-05T02:47:39.535Z,18.0
2018-06-05T02:48:40.208Z,18.0
2018-06-05T02:49:40.875Z,17.9
2018-06-05T02:50:41.544Z,18.0
2018-06-05T02:51:42.212Z,17.9
2018-06-05T02:52:42.881Z,17.9
2018-06-05T02:53:43.554Z,18.0
2018-06-05T02:54:44.255Z,18.0
2018-06-05T02:55:44.961Z,18.0
2018-06-05T02:56:45.631Z,18.0
2018-06-05T02:57:46.300Z,18.0
2018-06-05T02:58:46.970Z,18.1
2018-06-05T02:59:47.639Z,18.0
2018-06-05T03:00:48.312Z,18.1
2018-06-05T03:01:49.015Z,18.2
2018-06-05T03:02:49.735Z,18.3
2018-06-05T03:03:50.404Z,18.3
2018-06-05T03:04:51.072Z,18.3
2018-06-05T03:05:51.741Z,18.4
2018-06-05T03:06:52.411Z,18.4
2018-06-05T03:07:53.129Z,18.5
2018-06-05T03:08:53.798Z,18.5
2018-06-05T03:09:54.468Z,18.6
2018-06-05T03:10:55.142Z,18.6
2018-06-05T03:11:55.808Z,18.6
2018-06-05T03:12:56.475Z,18.7
2018-06-05T03:13:57.144Z,18.6
2018-06-05T03:14:57.814Z,18.8
2018-06-05T03:15:58.495Z,18.7
2018-06-05T03:16:59.190Z,18.9
2018-06-05T03:17:59.860Z,18.8
2018-06-05T03:19:00.531Z,18.9
2018-06-05T03:20:01.204Z,18.8
2018-06-05T03:21:01.910Z,18.8
2018-06-05T03:22:02.581Z,18.8
2018-06-05T03:23:03.251Z,18.8
2018-06-05T03:24:03.923Z,18.8
2018-06-05T03:25:04.628Z,18.9
2018-06-05T03:26:05.296Z,18.8
2018-06-05T03:27:05.970Z,18.8
2018-06-05T03:28:06.638Z,18.9
2018-06-05T03:29:07.310Z,18.8
2018-06-05T03:30:07.983Z,19.0
2018-06-05T03:31:08.656Z,19.0
2018-06-05T03:32:09.328Z,19.0
2018-06-05T03:33:10.003Z,19.0
2018-06-05T03:34:10.673Z,19.0
2018-06-05T03:35:11.344Z,19.0
2018-06-05T03:36:12.019Z,19.0
2018-06-05T03:37:12.687Z,19.0
2018-06-05T03:38:13.359Z,19.0
2018-06-05T03:39:14.033Z,19.0
2018-06-05T03:40:14.705Z,19.0
2018-06-05T03:41:15.376Z,19.0
2018-06-05T03:42:16.049Z,19.0
2018-06-05T03:43:16.720Z,19.0
2018-06-05T03:44:17.393Z,19.1
2018-06-05T03:45:18.067Z,19.1
2018-06-05T03:46:18.735Z,19.1
2018-06-05T03:47:19.407Z,19.1
2018-06-05T03:48:20.081Z,19.2
2018-06-05T03:49:20.755Z,19.2
2018-06-05T03:50:21.427Z,19.2
2018-06-05T03:51:22.099Z,19.2
2018-06-05T03:52:22.773Z,19.2
2018-06-05T03:53:23.444Z,19.2
2018-06-05T03:54:24.118Z,19.2
2018-06-05T03:55:24.822Z,19.2
2018-06-05T03:56:25.541Z,19.3
2018-06-05T03:57:26.167Z,19.3
2018-06-05T03:58:26.839Z,19.3
2018-06-05T03:59:27.512Z,19.3
2018-06-05T04:00:28.188Z,19.3
2018-06-05T04:01:28.857Z,19.3
2018-06-05T04:02:29.531Z,19.3
2018-06-05T04:03:30.204Z,19.5
2018-06-05T04:04:30.875Z,19.4
2018-06-05T04:05:31.547Z,19.5
2018-06-05T04:06:32.219Z,19.4
2018-06-05T04:07:32.891Z,19.4
2018-06-05T04:08:33.601Z,19.4
2018-06-05T04:09:34.275Z,19.4
2018-06-05T04:10:34.947Z,19.5
2018-06-05T04:11:35.618Z,19.5
2018-06-05T04:12:36.291Z,19.5
2018-06-05T04:13:36.963Z,19.5
2018-06-05T04:14:37.635Z,19.5
2018-06-05T04:15:38.308Z,19.6
2018-06-05T04:16:38.979Z,19.5
2018-06-05T04:17:39.653Z,19.6
2018-06-05T04:18:40.328Z,19.5
2018-06-05T04:19:40.999Z,19.6
2018-06-05T04:20:41.671Z,19.6
2018-06-05T04:21:42.345Z,19.6
2018-06-05T04:22:43.019Z,19.6
2018-06-05T04:23:43.690Z,19.6
2018-06-05T04:24:44.362Z,19.5
2018-06-05T04:25:45.037Z,19.5
2018-06-05T04:26:45.706Z,19.6
2018-06-05T04:27:46.382Z,19.5
2018-06-05T04:28:47.091Z,19.6
2018-06-05T04:29:47.761Z,19.6
2018-06-05T04:30:48.434Z,19.7
2018-06-05T04:31:49.111Z,19.7
2018-06-05T04:32:49.780Z,19.6
2018-06-05T04:33:50.452Z,19.6
2018-06-05T04:34:51.124Z,19.7
2018-06-05T04:35:51.796Z,19.6
2018-06-05T04:36:52.472Z,19.6
2018-06-05T04:37:53.143Z,19.6
2018-06-05T04:38:53.815Z,19.7
2018-06-05T04:39:54.490Z,19.7
2018-06-05T04:40:55.195Z,19.7
2018-06-05T04:41:55.867Z,19.6
2018-06-05T04:42:56.541Z,19.7
2018-06-05T04:43:57.213Z,19.6
2018-06-05T04:44:57.886Z,19.7
2018-06-05T04:45:58.599Z,19.7
2018-06-05T04:46:59.267Z,19.6
2018-06-05T04:47:59.939Z,19.6
2018-06-05T04:49:00.611Z,19.7
2018-06-05T04:50:01.285Z,19.6
2018-06-05T04:51:01.959Z,19.6
2018-06-05T04:52:02.632Z,19.6
2018-06-05T04:53:03.334Z,19.7
2018-06-05T04:54:04.005Z,19.7
2018-06-05T04:55:04.678Z,19.7
2018-06-05T04:56:05.350Z,19.7
2018-06-05T04:57:06.025Z,19.8
2018-06-05T04:58:06.697Z,19.8
2018-06-05T04:59:07.370Z,19.7
2018-06-05T05:00:08.042Z,19.8
2018-06-05T05:01:08.715Z,19.8
2018-06-05T05:02:09.390Z,19.8
2018-06-05T05:03:10.063Z,19.8
2018-06-05T05:04:10.736Z,19.8
2018-06-05T05:05:11.408Z,19.9
2018-06-05T05:06:12.081Z,19.9
2018-06-05T05:07:12.756Z,19.9
2018-06-05T05:08:13.424Z,19.9
2018-06-05T05:09:14.101Z,19.9
2018-06-05T05:10:14.808Z,19.9
2018-06-05T05:11:15.481Z,19.9
2018-06-05T05:12:16.157Z,19.8
2018-06-05T05:13:16.835Z,19.9
2018-06-05T05:14:17.538Z,19.9
2018-06-05T05:15:18.213Z,19.9
2018-06-05T05:16:18.923Z,19.9
2018-06-05T05:17:19.597Z,19.9
2018-06-05T05:18:20.269Z,20.0
2018-06-05T05:19:20.943Z,20.0
2018-06-05T05:20:21.615Z,20.0
2018-06-05T05:21:22.292Z,20.1
2018-06-05T05:22:22.967Z,20.1
2018-06-05T05:23:23.639Z,20.0
2018-06-05T05:24:24.313Z,20.0
2018-06-05T05:25:24.986Z,20.1
2018-06-05T05:26:25.697Z,20.1
2018-06-05T05:27:26.371Z,20.0
2018-06-05T05:28:27.043Z,20.0
2018-06-05T05:29:27.720Z,20.1
2018-06-05T05:30:28.394Z,20.0
2018-06-05T05:31:29.068Z,20.0
2018-06-05T05:32:29.742Z,20.1
2018-06-05T05:33:30.416Z,20.1
2018-06-05T05:34:31.090Z,20.1
2018-06-05T05:35:31.764Z,20.0
2018-06-05T05:36:32.437Z,20.1
2018-06-05T05:37:33.110Z,20.1
2018-06-05T05:38:33.784Z,20.1
2018-06-05T05:39:34.458Z,20.0
2018-06-05T05:40:35.131Z,20.1
2018-06-05T05:41:35.807Z,20.0
2018-06-05T05:42:36.482Z,20.1
2018-06-05T05:43:37.156Z,20.1
2018-06-05T05:44:37.832Z,20.1
2018-06-05T05:45:38.544Z,20.1
2018-06-05T05:46:39.217Z,20.1
2018-06-05T05:47:39.927Z,20.0
2018-06-05T05:48:40.600Z,20.1
2018-06-05T05:49:41.275Z,20.1
2018-06-05T05:50:41.950Z,20.1
2018-06-05T05:51:42.622Z,20.2
2018-06-05T05:52:43.296Z,20.1
2018-06-05T05:53:43.972Z,20.1
2018-06-05T05:54:44.645Z,20.2
2018-06-05T05:55:45.318Z,20.2
2018-06-05T05:56:46.029Z,20.2
2018-06-05T05:57:46.703Z,20.2
2018-06-05T05:58:47.377Z,20.2
2018-06-05T05:59:48.056Z,20.2
2018-06-05T06:00:48.725Z,20.2
2018-06-05T06:01:49.398Z,20.2
2018-06-05T06:02:50.081Z,20.2
2018-06-05T06:03:50.831Z,20.2
2018-06-05T06:04:51.460Z,20.2
2018-06-05T06:05:52.135Z,20.2
2018-06-05T06:06:52.808Z,20.2
2018-06-05T06:07:53.481Z,20.1
2018-06-05T06:08:54.156Z,20.1
2018-06-05T06:09:54.829Z,20.0
2018-06-05T06:10:55.555Z,19.9
2018-06-05T06:11:56.208Z,19.8
2018-06-05T06:12:56.883Z,19.7
2018-06-05T06:13:57.595Z,19.8
2018-06-05T06:14:58.269Z,19.7
2018-06-05T06:15:58.943Z,19.7
2018-06-05T06:16:59.617Z,19.7
2018-06-05T06:18:00.290Z,19.8
2018-06-05T06:19:00.964Z,19.7
2018-06-05T06:20:01.638Z,19.6
2018-06-05T06:21:02.313Z,19.7
2018-06-05T06:22:02.989Z,19.7
2018-06-05T06:23:03.661Z,19.7
2018-06-05T06:24:04.335Z,19.7
2018-06-05T06:25:05.015Z,19.6
2018-06-05T06:26:05.685Z,19.6
2018-06-05T06:27:06.358Z,19.7
2018-06-05T06:28:07.031Z,19.7
2018-06-05T06:29:07.706Z,19.6
2018-06-05T06:30:08.380Z,19.7
2018-06-05T06:31:09.091Z,19.7
2018-06-05T06:32:09.762Z,19.6
2018-06-05T06:33:10.438Z,19.7
2018-06-05T06:34:11.118Z,19.8
2018-06-05T06:35:11.784Z,19.7
2018-06-05T06:36:12.458Z,19.8
2018-06-05T06:37:13.138Z,19.8
2018-06-05T06:38:13.809Z,19.9
2018-06-05T06:39:14.482Z,19.9
2018-06-05T06:40:15.157Z,19.9
2018-06-05T06:41:15.833Z,20.0
2018-06-05T06:42:16.541Z,20.0
2018-06-05T06:43:17.213Z,20.0
2018-06-05T06:44:17.887Z,20.1
2018-06-05T06:45:18.561Z,20.0
2018-06-05T06:46:19.237Z,20.1
2018-06-05T06:47:19.910Z,20.1
2018-06-05T06:48:20.621Z,20.1
2018-06-05T06:49:21.294Z,20.1
2018-06-05T06:50:22.008Z,20.1
2018-06-05T06:51:22.680Z,20.1
2018-06-05T06:52:23.353Z,20.2
2018-06-05T06:53:24.026Z,20.2
2018-06-05T06:54:24.744Z,20.3
2018-06-05T06:55:25.374Z,20.3
2018-06-05T06:56:26.050Z,20.4
2018-06-05T06:57:26.724Z,20.3
2018-06-05T06:58:27.405Z,20.4
2018-06-05T06:59:28.110Z,20.4
2018-06-05T07:00:28.784Z,20.4
2018-06-05T07:01:29.458Z,20.3
2018-06-05T07:02:30.131Z,20.4
2018-06-05T07:03:30.809Z,20.3
2018-06-05T07:04:31.482Z,20.3
2018-06-05T07:05:32.155Z,20.3
2018-06-05T07:06:32.830Z,20.4
2018-06-05T07:07:33.541Z,20.4
2018-06-05T07:08:34.216Z,20.3
2018-06-05T07:09:34.892Z,20.4
2018-06-05T07:10:35.565Z,20.3
2018-06-05T07:11:36.241Z,20.3
2018-06-05T07:12:36.916Z,20.3
2018-06-05T07:13:37.590Z,20.3
2018-06-05T07:14:38.269Z,20.3
2018-06-05T07:15:38.984Z,20.2
2018-06-05T07:16:39.651Z,20.2
2018-06-05T07:17:40.323Z,20.2
2018-06-05T07:18:40.996Z,20.1
2018-06-05T07:19:41.671Z,20.0
2018-06-05T07:20:42.347Z,20.1
2018-06-05T07:21:43.020Z,20.1
2018-06-05T07:22:43.695Z,20.0
2018-06-05T07:23:44.369Z,20.1
2018-06-05T07:24:45.044Z,20.1
2018-06-05T07:25:45.715Z,20.1
2018-06-05T07:26:46.390Z,20.1
2018-06-05T07:27:47.068Z,20.1
2018-06-05T07:28:47.742Z,20.1
2018-06-05T07:29:48.417Z,20.1
2018-06-05T07:30:49.090Z,20.1
2018-06-05T07:31:49.764Z,20.2
2018-06-05T07:32:50.437Z,20.1
2018-06-05T07:33:51.111Z,20.1
2018-06-05T07:34:51.787Z,20.1
2018-06-05T07:35:52.497Z,20.1
2018-06-05T07:36:53.134Z,20.2
2018-06-05T07:37:53.808Z,20.1
2018-06-05T07:38:54.483Z,20.0
2018-06-05T07:39:55.157Z,20.1
2018-06-05T07:40:55.830Z,20.1
2018-06-05T07:41:56.506Z,20.1
2018-06-05T07:42:57.180Z,20.0
2018-06-05T07:43:57.853Z,20.0
2018-06-05T07:44:58.566Z,20.0
2018-06-05T07:45:59.240Z,20.0
2018-06-05T07:46:59.916Z,20.0
2018-06-05T07:48:00.625Z,20.0
2018-06-05T07:49:01.298Z,20.0
2018-06-05T07:50:02.008Z,19.9
2018-06-05T07:51:02.652Z,20.0
2018-06-05T07:52:03.323Z,20.0
2018-06-05T07:53:03.997Z,19.9
2018-06-05T07:54:04.671Z,20.0
2018-06-05T07:55:05.346Z,20.0
2018-06-05T07:56:06.025Z,20.0
2018-06-05T07:57:06.729Z,20.0
2018-06-05T07:58:07.404Z,20.0
2018-06-05T07:59:08.082Z,20.1
2018-06-05T08:00:08.759Z,20.1
2018-06-05T08:01:09.471Z,20.0
2018-06-05T08:02:10.145Z,20.1
2018-06-05T08:03:10.820Z,20.1
2018-06-05T08:04:11.529Z,20.1
2018-06-05T08:05:12.202Z,20.1
2018-06-05T08:06:12.878Z,20.1
2018-06-05T08:07:13.554Z,20.1
2018-06-05T08:08:14.229Z,20.1
2018-06-05T08:09:14.902Z,20.1
2018-06-05T08:10:15.576Z,20.1
2018-06-05T08:11:16.252Z,20.1
2018-06-05T08:12:16.929Z,20.2
2018-06-05T08:13:17.601Z,20.1
2018-06-05T08:14:18.280Z,20.2
2018-06-05T08:15:18.954Z,20.2
2018-06-05T08:16:19.629Z,20.1
2018-06-05T08:17:20.304Z,20.3
2018-06-05T08:18:21.020Z,20.3
2018-06-05T08:19:21.653Z,20.3
2018-06-05T08:20:22.330Z,20.4
2018-06-05T08:21:23.004Z,20.4
2018-06-05T08:22:23.678Z,20.4
2018-06-05T08:23:24.352Z,20.4
2018-06-05T08:24:25.065Z,20.4
2018-06-05T08:25:25.702Z,20.5
2018-06-05T08:26:26.377Z,20.5
2018-06-05T08:27:27.052Z,20.5
2018-06-05T08:28:27.729Z,20.5
2018-06-05T08:29:28.405Z,20.6
2018-06-05T08:30:29.080Z,20.5
2018-06-05T08:31:29.757Z,20.7
2018-06-05T08:32:30.432Z,20.6
2018-06-05T08:33:31.108Z,20.8
2018-06-05T08:34:31.787Z,20.7
2018-06-05T08:35:32.464Z,20.8
2018-06-05T08:36:33.139Z,20.8
2018-06-05T08:37:33.815Z,20.7
2018-06-05T08:38:34.489Z,20.8
2018-06-05T08:39:35.166Z,20.7
2018-06-05T08:40:35.842Z,20.7
2018-06-05T08:41:36.518Z,20.8
2018-06-05T08:42:37.194Z,20.9
2018-06-05T08:43:37.869Z,20.8
2018-06-05T08:44:38.545Z,20.8
2018-06-05T08:45:39.223Z,20.9
2018-06-05T08:46:39.898Z,20.9
2018-06-05T08:47:40.577Z,21.0
2018-06-05T08:48:41.249Z,21.0
2018-06-05T08:49:41.923Z,21.0
2018-06-05T08:50:42.599Z,21.1
2018-06-05T08:51:43.528Z,21.2
2018-06-05T08:52:44.206Z,21.2
2018-06-05T08:53:44.880Z,21.2
2018-06-05T08:54:45.560Z,21.1
2018-06-05T08:55:46.234Z,21.1
2018-06-05T08:56:46.907Z,21.2
2018-06-05T08:57:47.583Z,21.1
2018-06-05T08:58:48.260Z,21.2
2018-06-05T08:59:48.954Z,21.3
2018-06-05T09:00:49.613Z,21.1
2018-06-05T09:01:50.289Z,21.2
2018-06-05T09:02:50.968Z,21.3
2018-06-05T09:03:51.640Z,21.4
2018-06-05T09:04:52.317Z,21.4
2018-06-05T09:05:52.993Z,21.4
2018-06-05T09:06:53.669Z,21.4
2018-06-05T09:07:54.344Z,21.6
2018-06-05T09:08:55.020Z,21.5
2018-06-05T09:09:55.698Z,21.6
2018-06-05T09:10:56.411Z,21.7
2018-06-05T09:11:57.049Z,21.9
2018-06-05T09:12:57.724Z,22.0
2018-06-05T09:13:58.401Z,22.0
2018-06-05T09:14:59.078Z,22.2
2018-06-05T09:15:59.753Z,22.3
2018-06-05T09:17:00.432Z,22.3
2018-06-05T09:18:01.107Z,22.5
2018-06-05T09:19:01.785Z,22.5
2018-06-05T09:20:02.461Z,22.7
2018-06-05T09:21:03.140Z,22.8
2018-06-05T09:22:03.864Z,22.9
2018-06-05T09:23:04.547Z,23.0
2018-06-05T09:24:05.257Z,23.2
2018-06-05T09:25:05.936Z,23.2
2018-06-05T09:26:06.611Z,23.4
2018-06-05T09:27:07.288Z,23.4
2018-06-05T09:28:07.965Z,23.5
2018-06-05T09:29:08.647Z,23.6
2018-06-05T09:30:09.321Z,23.7
2018-06-05T09:31:09.998Z,23.9
2018-06-05T09:32:10.680Z,23.8
2018-06-05T09:33:11.357Z,24.0
2018-06-05T09:34:12.037Z,24.1
2018-06-05T09:35:12.715Z,24.3
2018-06-05T09:36:13.394Z,24.5
2018-06-05T09:37:14.072Z,24.7
2018-06-05T09:38:14.751Z,25.0
2018-06-05T09:39:15.429Z,25.0
2018-06-05T09:40:16.107Z,25.1
2018-06-05T09:41:16.789Z,25.2
2018-06-05T09:42:17.468Z,25.2
2018-06-05T09:43:18.148Z,25.3
2018-06-05T09:44:18.827Z,25.3
2018-06-05T09:45:19.507Z,25.3
2018-06-05T09:46:20.188Z,25.6
2018-06-05T09:47:20.873Z,25.6
2018-06-05T09:48:21.583Z,25.8
2018-06-05T09:49:22.265Z,25.7
2018-06-05T09:50:22.943Z,25.7
2018-06-05T09:51:23.621Z,25.7
2018-06-05T09:52:24.343Z,25.7
2018-06-05T09:53:24.980Z,25.7
2018-06-05T09:54:25.657Z,25.7
2018-06-05T09:55:26.337Z,25.9
2018-06-05T09:56:27.029Z,25.8
2018-06-05T09:57:27.694Z,25.8
2018-06-05T09:58:28.475Z,25.8
2018-06-05T09:59:29.056Z,25.6
2018-06-05T10:00:29.773Z,25.7
2018-06-05T10:01:30.455Z,25.7
2018-06-05T10:02:31.133Z,25.7
2018-06-05T10:03:31.814Z,25.8
2018-06-05T10:04:32.493Z,25.9
2018-06-05T10:05:33.186Z,26.0
2018-06-05T10:06:33.855Z,26.1
2018-06-05T10:07:34.535Z,26.2
2018-06-05T10:08:35.214Z,26.1
2018-06-05T10:09:35.895Z,26.2
2018-06-05T10:10:36.577Z,26.3
2018-06-05T10:11:37.260Z,26.4
2018-06-05T10:12:37.940Z,26.4
2018-06-05T10:13:38.621Z,26.5
2018-06-05T10:14:39.301Z,26.6
2018-06-05T10:15:39.986Z,26.6
2018-06-05T10:16:40.664Z,26.6
2018-06-05T10:17:41.344Z,26.7
2018-06-05T10:18:42.025Z,26.8
2018-06-05T10:19:42.706Z,26.6
2018-06-05T10:20:43.386Z,26.3
2018-06-05T10:21:44.069Z,26.4
2018-06-05T10:22:44.748Z,26.5
2018-06-05T10:23:45.429Z,26.5
2018-06-05T10:24:46.109Z,26.6
2018-06-05T10:25:46.790Z,26.6
2018-06-05T10:26:47.473Z,26.5
2018-06-05T10:27:48.169Z,26.4
2018-06-05T10:28:48.872Z,26.3
2018-06-05T10:29:49.555Z,26.5
2018-06-05T10:30:50.231Z,26.6
2018-06-05T10:31:50.913Z,26.8
2018-06-05T10:32:51.596Z,26.9
2018-06-05T10:33:52.279Z,26.8
2018-06-05T10:34:53.016Z,26.8
2018-06-05T10:35:53.641Z,26.9
2018-06-05T10:36:54.322Z,26.8
2018-06-05T10:37:55.039Z,26.7
2018-06-05T10:38:55.723Z,26.5
2018-06-05T10:39:56.439Z,26.6
2018-06-05T10:40:57.121Z,26.7
2018-06-05T10:41:57.804Z,26.7
2018-06-05T10:42:58.484Z,26.8
2018-06-05T10:43:59.180Z,27.1
2018-06-05T10:44:59.884Z,27.1
2018-06-05T10:46:00.569Z,27.3
2018-06-05T10:47:01.245Z,27.3
2018-06-05T10:48:01.928Z,27.4
2018-06-05T10:49:02.610Z,27.5
2018-06-05T10:50:03.290Z,27.7
2018-06-05T10:51:03.973Z,27.8
2018-06-05T10:52:04.655Z,28.0
2018-06-05T10:53:05.338Z,28.1
2018-06-05T10:54:06.025Z,28.3
2018-06-05T10:55:06.737Z,28.2
2018-06-05T10:56:07.419Z,28.5
2018-06-05T10:57:08.102Z,28.5
2018-06-05T10:58:08.783Z,28.5
2018-06-05T10:59:09.466Z,28.6
2018-06-05T11:00:10.149Z,28.4
2018-06-05T11:01:10.831Z,28.3
2018-06-05T11:02:11.514Z,28.3
2018-06-05T11:03:12.195Z,28.3
2018-06-05T11:04:12.877Z,28.2
2018-06-05T11:05:13.560Z,28.3
2018-06-05T11:06:14.242Z,28.2
2018-06-05T11:07:14.924Z,28.3
2018-06-05T11:08:15.609Z,28.3
2018-06-05T11:09:16.288Z,28.4
2018-06-05T11:10:16.970Z,28.4
2018-06-05T11:11:17.651Z,28.4
2018-06-05T11:12:18.332Z,28.5
2018-06-05T11:13:19.014Z,28.3
2018-06-05T11:14:19.697Z,28.0
2018-06-05T11:15:20.379Z,27.8
2018-06-05T11:16:21.061Z,27.6
2018-06-05T11:17:21.745Z,27.4
2018-06-05T11:18:22.447Z,27.5
2018-06-05T11:19:23.107Z,27.6
2018-06-05T11:20:23.791Z,27.7
2018-06-05T11:21:24.508Z,27.6
2018-06-05T11:22:25.190Z,27.5
2018-06-05T11:23:25.871Z,27.6
2018-06-05T11:24:26.553Z,27.7
2018-06-05T11:25:27.235Z,27.8
2018-06-05T11:26:27.918Z,28.1
2018-06-05T11:27:28.601Z,28.2
2018-06-05T11:28:29.281Z,28.3
2018-06-05T11:29:29.962Z,28.5
2018-06-05T11:30:30.643Z,28.4
2018-06-05T11:31:31.361Z,28.1
2018-06-05T11:32:32.043Z,27.9
2018-06-05T11:33:32.722Z,27.8
2018-06-05T11:34:33.404Z,27.8
2018-06-05T11:35:34.088Z,27.8
2018-06-05T11:36:34.802Z,27.8
2018-06-05T11:37:35.482Z,27.9
2018-06-05T11:38:36.164Z,28.0
2018-06-05T11:39:36.847Z,27.7
2018-06-05T11:40:37.527Z,27.6
2018-06-05T11:41:38.210Z,27.5
2018-06-05T11:42:38.889Z,27.5
2018-06-05T11:43:39.569Z,27.4
2018-06-05T11:44:40.249Z,27.5
2018-06-05T11:45:40.932Z,27.5
2018-06-05T11:46:41.659Z,27.5
2018-06-05T11:47:42.294Z,27.4
2018-06-05T11:48:42.975Z,27.2
2018-06-05T11:49:43.658Z,27.0
2018-06-05T11:50:44.337Z,26.9
2018-06-05T11:51:45.018Z,26.8
2018-06-05T11:52:45.698Z,26.8
2018-06-05T11:53:46.379Z,26.8
2018-06-05T11:54:47.059Z,26.8
2018-06-05T11:55:47.739Z,26.7
2018-06-05T11:56:48.420Z,26.8
2018-06-05T11:57:49.100Z,26.7
2018-06-05T11:58:49.780Z,26.8
2018-06-05T11:59:50.458Z,26.7
2018-06-05T12:00:51.187Z,26.6
2018-06-05T12:01:51.818Z,26.4
2018-06-05T12:02:52.499Z,26.3
2018-06-05T12:03:53.177Z,26.2
2018-06-05T12:04:53.857Z,26.0
2018-06-05T12:05:54.536Z,26.0
2018-06-05T12:06:55.217Z,26.1
2018-06-05T12:07:55.894Z,26.2
2018-06-05T12:08:56.572Z,26.2
2018-06-05T12:09:57.253Z,26.2
2018-06-05T12:10:57.935Z,26.2
2018-06-05T12:11:58.610Z,26.2
2018-06-05T12:12:59.289Z,26.3
2018-06-05T12:13:59.968Z,26.4
2018-06-05T12:15:00.647Z,26.6
2018-06-05T12:16:01.329Z,26.7
2018-06-05T12:17:02.043Z,26.8
2018-06-05T12:18:02.725Z,27.0
2018-06-05T12:19:03.404Z,27.2
2018-06-05T12:20:04.085Z,27.3
2018-06-05T12:21:04.767Z,27.2
2018-06-05T12:22:05.479Z,27.2
2018-06-05T12:23:06.157Z,27.3
2018-06-05T12:24:06.839Z,27.3
2018-06-05T12:25:07.518Z,27.4
2018-06-05T12:26:08.199Z,27.5
2018-06-05T12:27:08.877Z,27.6
2018-06-05T12:28:09.558Z,27.7
2018-06-05T12:29:10.241Z,27.7
2018-06-05T12:30:10.918Z,27.7
2018-06-05T12:31:11.600Z,27.9
2018-06-05T12:32:12.279Z,27.9
2018-06-05T12:33:12.958Z,27.9
2018-06-05T12:34:13.637Z,27.8
2018-06-05T12:35:14.318Z,27.7
2018-06-05T12:36:14.998Z,27.7
2018-06-05T12:37:15.730Z,27.6
2018-06-05T12:38:16.359Z,27.6
2018-06-05T12:39:17.039Z,27.4
2018-06-05T12:40:17.718Z,27.4
2018-06-05T12:41:18.397Z,27.5
2018-06-05T12:42:19.077Z,27.4
2018-06-05T12:43:19.758Z,27.4
2018-06-05T12:44:20.473Z,27.6
2018-06-05T12:45:21.118Z,27.4
2018-06-05T12:46:21.797Z,27.3
2018-06-05T12:47:22.477Z,27.3
2018-06-05T12:48:23.155Z,27.3
2018-06-05T12:49:23.835Z,27.3
2018-06-05T12:50:24.515Z,27.5
2018-06-05T12:51:25.195Z,27.5
2018-06-05T12:52:25.876Z,27.5
2018-06-05T12:53:26.554Z,27.5
2018-06-05T12:54:27.234Z,27.6
2018-06-05T12:55:27.920Z,27.7
2018-06-05T12:56:28.597Z,27.8
2018-06-05T12:57:29.277Z,27.8
2018-06-05T12:58:29.957Z,27.7
2018-06-05T12:59:30.637Z,27.8
2018-06-05T13:00:31.318Z,27.8
2018-06-05T13:01:32.001Z,27.9
2018-06-05T13:02:32.718Z,28.0
2018-06-05T13:03:33.397Z,28.0
2018-06-05T13:04:34.077Z,27.9
2018-06-05T13:05:34.757Z,27.8
2018-06-05T13:06:35.439Z,27.7
2018-06-05T13:07:36.157Z,27.5
2018-06-05T13:08:36.837Z,27.5
2018-06-05T13:09:37.517Z,27.4
2018-06-05T13:10:38.198Z,27.4
2018-06-05T13:11:38.875Z,27.5
2018-06-05T13:12:39.555Z,27.5
2018-06-05T13:13:40.234Z,27.5
2018-06-05T13:14:40.917Z,27.6
2018-06-05T13:15:41.594Z,27.6
2018-06-05T13:16:42.274Z,27.7
2018-06-05T13:17:42.956Z,27.7
2018-06-05T13:18:43.635Z,27.7
2018-06-05T13:19:44.317Z,27.6
2018-06-05T13:20:44.998Z,27.6
2018-06-05T13:21:45.678Z,27.7
2018-06-05T13:22:46.426Z,27.7
2018-06-05T13:23:47.042Z,27.6
2018-06-05T13:24:47.717Z,27.5
2018-06-05T13:25:48.396Z,27.5
2018-06-05T13:26:49.078Z,27.3
2018-06-05T13:27:49.758Z,27.3